sensor_id;sensor_type;location;lat;lon;timestamp;temperature;humidity
32907;DHT22;19259;51.590;5.320;2022-08-16T00:01:47;21.90;99.90
32907;DHT22;19259;51.590;5.320;2022-08-16T00:04:15;22.00;99.90
32907;DHT22;19259;51.590;5.320;2022-08-16T00:06:43;21.90;99.90
32907;DHT22;19259;51.590;5.320;2022-08-16T00:09:11;21.80;99.90
32907;DHT22;19259;51.590;5.320;2022-08-16T00:11:40;21.60;99.90
32907;DHT22;19259;51.590;5.320;2022-08-16T00:14:11;21.40;99.90
32907;DHT22;19259;51.590;5.320;2022-08-16T00:16:39;21.40;99.90
32907;DHT22;19259;51.590;5.320;2022-08-16T00:19:10;21.60;99.90
32907;DHT22;19259;51.590;5.320;2022-08-16T00:21:36;21.40;99.90
32907;DHT22;19259;51.590;5.320;2022-08-16T00:24:04;21.30;99.90
32907;DHT22;19259;51.590;5.320;2022-08-16T00:26:34;21.10;99.90
32907;DHT22;19259;51.590;5.320;2022-08-16T00:29:02;21.10;99.90
32907;DHT22;19259;51.590;5.320;2022-08-16T00:31:33;21.10;99.90
32907;DHT22;19259;51.590;5.320;2022-08-16T00:34:02;21.00;99.90
32907;DHT22;19259;51.590;5.320;2022-08-16T00:36:30;21.00;99.90
32907;DHT22;19259;51.590;5.320;2022-08-16T00:38:57;20.90;99.90
32907;DHT22;19259;51.590;5.320;2022-08-16T00:41:27;21.00;99.90
32907;DHT22;19259;51.590;5.320;2022-08-16T00:43:56;20.90;99.90
32907;DHT22;19259;51.590;5.320;2022-08-16T00:46:30;20.80;99.90
32907;DHT22;19259;51.590;5.320;2022-08-16T00:48:58;20.90;99.90
32907;DHT22;19259;51.590;5.320;2022-08-16T00:51:27;20.90;99.90
32907;DHT22;19259;51.590;5.320;2022-08-16T00:53:55;20.90;99.90
32907;DHT22;19259;51.590;5.320;2022-08-16T00:56:29;20.80;99.90
32907;DHT22;19259;51.590;5.320;2022-08-16T00:59:00;20.80;99.90
32907;DHT22;19259;51.590;5.320;2022-08-16T01:01:26;20.70;99.90
32907;DHT22;19259;51.590;5.320;2022-08-16T01:03:54;20.70;99.90
32907;DHT22;19259;51.590;5.320;2022-08-16T01:06:22;20.60;99.90
32907;DHT22;19259;51.590;5.320;2022-08-16T01:08:51;20.50;99.90
32907;DHT22;19259;51.590;5.320;2022-08-16T01:11:21;20.40;99.90
32907;DHT22;19259;51.590;5.320;2022-08-16T01:13:51;20.40;99.90
32907;DHT22;19259;51.590;5.320;2022-08-16T01:16:22;20.40;99.90
32907;DHT22;19259;51.590;5.320;2022-08-16T01:19:09;20.30;99.90
32907;DHT22;19259;51.590;5.320;2022-08-16T01:21:54;20.30;99.90
32907;DHT22;19259;51.590;5.320;2022-08-16T01:24:34;20.30;99.90
32907;DHT22;19259;51.590;5.320;2022-08-16T01:27:09;20.30;99.90
32907;DHT22;19259;51.590;5.320;2022-08-16T01:30:09;20.30;99.90
32907;DHT22;19259;51.590;5.320;2022-08-16T01:32:11;20.30;99.90
32907;DHT22;19259;51.590;5.320;2022-08-16T01:34:39;20.40;99.90
32907;DHT22;19259;51.590;5.320;2022-08-16T01:37:09;20.30;99.90
32907;DHT22;19259;51.590;5.320;2022-08-16T01:39:37;20.40;99.90
32907;DHT22;19259;51.590;5.320;2022-08-16T01:42:06;20.30;99.90
32907;DHT22;19259;51.590;5.320;2022-08-16T01:44:35;20.40;99.90
32907;DHT22;19259;51.590;5.320;2022-08-16T01:47:03;20.20;99.90
32907;DHT22;19259;51.590;5.320;2022-08-16T01:49:34;20.20;99.90
32907;DHT22;19259;51.590;5.320;2022-08-16T01:52:06;20.20;99.90
32907;DHT22;19259;51.590;5.320;2022-08-16T01:54:32;20.20;99.90
32907;DHT22;19259;51.590;5.320;2022-08-16T01:57:02;20.10;99.90
32907;DHT22;19259;51.590;5.320;2022-08-16T01:59:31;20.10;99.90
32907;DHT22;19259;51.590;5.320;2022-08-16T02:01:59;20.10;99.90
32907;DHT22;19259;51.590;5.320;2022-08-16T02:04:28;20.00;99.90
32907;DHT22;19259;51.590;5.320;2022-08-16T02:06:55;20.00;99.90
32907;DHT22;19259;51.590;5.320;2022-08-16T02:09:23;20.00;99.90
32907;DHT22;19259;51.590;5.320;2022-08-16T02:11:55;19.90;99.90
32907;DHT22;19259;51.590;5.320;2022-08-16T02:14:25;20.00;99.90
32907;DHT22;19259;51.590;5.320;2022-08-16T02:16:58;20.00;99.90
32907;DHT22;19259;51.590;5.320;2022-08-16T02:19:28;19.90;99.90
32907;DHT22;19259;51.590;5.320;2022-08-16T02:21:57;19.90;99.90
32907;DHT22;19259;51.590;5.320;2022-08-16T02:24:25;19.80;99.90
32907;DHT22;19259;51.590;5.320;2022-08-16T02:26:59;19.80;99.90
32907;DHT22;19259;51.590;5.320;2022-08-16T02:29:26;19.90;99.90
32907;DHT22;19259;51.590;5.320;2022-08-16T02:31:54;19.90;99.90
32907;DHT22;19259;51.590;5.320;2022-08-16T02:34:22;19.70;99.90
32907;DHT22;19259;51.590;5.320;2022-08-16T02:36:49;19.50;99.90
32907;DHT22;19259;51.590;5.320;2022-08-16T02:39:17;19.70;99.90
32907;DHT22;19259;51.590;5.320;2022-08-16T02:41:48;19.70;99.90
32907;DHT22;19259;51.590;5.320;2022-08-16T02:44:16;19.70;99.90
32907;DHT22;19259;51.590;5.320;2022-08-16T02:46:45;19.60;99.90
32907;DHT22;19259;51.590;5.320;2022-08-16T02:49:13;19.70;99.90
32907;DHT22;19259;51.590;5.320;2022-08-16T02:51:41;19.70;99.90
32907;DHT22;19259;51.590;5.320;2022-08-16T02:54:10;19.70;99.90
32907;DHT22;19259;51.590;5.320;2022-08-16T02:56:40;19.60;99.90
32907;DHT22;19259;51.590;5.320;2022-08-16T02:59:08;19.60;99.90
32907;DHT22;19259;51.590;5.320;2022-08-16T03:01:36;19.50;99.90
32907;DHT22;19259;51.590;5.320;2022-08-16T03:04:05;19.50;99.90
32907;DHT22;19259;51.590;5.320;2022-08-16T03:06:32;19.70;99.90
32907;DHT22;19259;51.590;5.320;2022-08-16T03:09:00;19.70;99.90
32907;DHT22;19259;51.590;5.320;2022-08-16T03:11:29;19.70;99.90
32907;DHT22;19259;51.590;5.320;2022-08-16T03:13:58;19.70;99.90
32907;DHT22;19259;51.590;5.320;2022-08-16T03:16:26;19.60;99.90
32907;DHT22;19259;51.590;5.320;2022-08-16T03:18:55;19.30;99.90
32907;DHT22;19259;51.590;5.320;2022-08-16T03:21:23;19.30;99.90
32907;DHT22;19259;51.590;5.320;2022-08-16T03:23:51;19.30;99.90
32907;DHT22;19259;51.590;5.320;2022-08-16T03:26:18;19.20;99.90
32907;DHT22;19259;51.590;5.320;2022-08-16T03:28:46;19.40;99.90
32907;DHT22;19259;51.590;5.320;2022-08-16T03:31:14;19.30;99.90
32907;DHT22;19259;51.590;5.320;2022-08-16T03:33:41;19.10;99.90
32907;DHT22;19259;51.590;5.320;2022-08-16T03:36:09;19.20;99.90
32907;DHT22;19259;51.590;5.320;2022-08-16T03:38:37;19.30;99.90
32907;DHT22;19259;51.590;5.320;2022-08-16T03:41:05;19.20;99.90
32907;DHT22;19259;51.590;5.320;2022-08-16T03:43:33;19.10;99.90
32907;DHT22;19259;51.590;5.320;2022-08-16T03:46:02;19.00;99.90
32907;DHT22;19259;51.590;5.320;2022-08-16T03:48:33;19.00;99.90
32907;DHT22;19259;51.590;5.320;2022-08-16T03:51:00;19.00;99.90
32907;DHT22;19259;51.590;5.320;2022-08-16T03:53:28;18.90;99.90
32907;DHT22;19259;51.590;5.320;2022-08-16T03:55:56;18.90;99.90
32907;DHT22;19259;51.590;5.320;2022-08-16T03:58:24;18.90;99.90
32907;DHT22;19259;51.590;5.320;2022-08-16T04:00:51;18.90;99.90
32907;DHT22;19259;51.590;5.320;2022-08-16T04:03:21;18.80;99.90
32907;DHT22;19259;51.590;5.320;2022-08-16T04:05:49;19.00;99.90
32907;DHT22;19259;51.590;5.320;2022-08-16T04:08:18;19.00;99.90
32907;DHT22;19259;51.590;5.320;2022-08-16T04:10:48;19.10;99.90
32907;DHT22;19259;51.590;5.320;2022-08-16T04:13:16;19.10;99.90
32907;DHT22;19259;51.590;5.320;2022-08-16T04:15:43;19.00;99.90
32907;DHT22;19259;51.590;5.320;2022-08-16T04:18:11;19.00;99.90
32907;DHT22;19259;51.590;5.320;2022-08-16T04:20:39;19.00;99.90
32907;DHT22;19259;51.590;5.320;2022-08-16T04:23:06;19.00;99.90
32907;DHT22;19259;51.590;5.320;2022-08-16T04:25:35;19.20;99.90
32907;DHT22;19259;51.590;5.320;2022-08-16T04:28:03;19.00;99.90
32907;DHT22;19259;51.590;5.320;2022-08-16T04:30:31;18.80;99.90
32907;DHT22;19259;51.590;5.320;2022-08-16T04:32:59;18.80;99.90
32907;DHT22;19259;51.590;5.320;2022-08-16T04:35:27;18.80;99.90
32907;DHT22;19259;51.590;5.320;2022-08-16T04:37:54;18.90;99.90
32907;DHT22;19259;51.590;5.320;2022-08-16T04:40:23;18.90;99.90
32907;DHT22;19259;51.590;5.320;2022-08-16T04:42:53;18.80;99.90
32907;DHT22;19259;51.590;5.320;2022-08-16T04:45:25;18.70;99.90
32907;DHT22;19259;51.590;5.320;2022-08-16T04:47:52;18.70;99.90
32907;DHT22;19259;51.590;5.320;2022-08-16T04:50:24;18.70;99.90
32907;DHT22;19259;51.590;5.320;2022-08-16T04:52:53;18.80;99.90
32907;DHT22;19259;51.590;5.320;2022-08-16T04:55:25;18.80;99.90
32907;DHT22;19259;51.590;5.320;2022-08-16T04:57:54;18.70;99.90
32907;DHT22;19259;51.590;5.320;2022-08-16T05:00:24;18.80;99.90
32907;DHT22;19259;51.590;5.320;2022-08-16T05:02:53;18.70;99.90
32907;DHT22;19259;51.590;5.320;2022-08-16T05:05:22;18.80;99.90
32907;DHT22;19259;51.590;5.320;2022-08-16T05:07:49;18.80;99.90
32907;DHT22;19259;51.590;5.320;2022-08-16T05:10:17;18.90;99.90
32907;DHT22;19259;51.590;5.320;2022-08-16T05:12:44;18.90;99.90
32907;DHT22;19259;51.590;5.320;2022-08-16T05:15:12;19.10;99.90
32907;DHT22;19259;51.590;5.320;2022-08-16T05:17:40;19.20;99.90
32907;DHT22;19259;51.590;5.320;2022-08-16T05:20:09;19.20;99.90
32907;DHT22;19259;51.590;5.320;2022-08-16T05:22:37;19.20;99.90
32907;DHT22;19259;51.590;5.320;2022-08-16T05:25:07;19.30;99.90
32907;DHT22;19259;51.590;5.320;2022-08-16T05:27:36;19.50;99.90
32907;DHT22;19259;51.590;5.320;2022-08-16T05:30:05;19.40;99.90
32907;DHT22;19259;51.590;5.320;2022-08-16T05:32:35;19.30;99.90
32907;DHT22;19259;51.590;5.320;2022-08-16T05:35:04;19.40;99.90
32907;DHT22;19259;51.590;5.320;2022-08-16T05:37:34;19.50;99.90
32907;DHT22;19259;51.590;5.320;2022-08-16T05:40:02;19.60;99.90
32907;DHT22;19259;51.590;5.320;2022-08-16T05:42:31;19.70;99.90
32907;DHT22;19259;51.590;5.320;2022-08-16T05:44:58;19.70;99.90
32907;DHT22;19259;51.590;5.320;2022-08-16T05:47:26;19.80;99.90
32907;DHT22;19259;51.590;5.320;2022-08-16T05:49:54;19.90;99.90
32907;DHT22;19259;51.590;5.320;2022-08-16T05:52:21;20.10;99.90
32907;DHT22;19259;51.590;5.320;2022-08-16T05:54:49;20.20;99.90
32907;DHT22;19259;51.590;5.320;2022-08-16T05:57:17;20.40;99.90
32907;DHT22;19259;51.590;5.320;2022-08-16T05:59:46;20.40;99.90
32907;DHT22;19259;51.590;5.320;2022-08-16T06:02:14;20.60;99.90
32907;DHT22;19259;51.590;5.320;2022-08-16T06:04:42;20.40;99.90
32907;DHT22;19259;51.590;5.320;2022-08-16T06:07:10;20.30;99.90
32907;DHT22;19259;51.590;5.320;2022-08-16T06:09:37;20.20;99.90
32907;DHT22;19259;51.590;5.320;2022-08-16T06:12:05;20.50;99.90
32907;DHT22;19259;51.590;5.320;2022-08-16T06:14:33;20.50;99.90
32907;DHT22;19259;51.590;5.320;2022-08-16T06:17:01;20.70;99.90
32907;DHT22;19259;51.590;5.320;2022-08-16T06:19:28;21.00;99.90
32907;DHT22;19259;51.590;5.320;2022-08-16T06:21:56;21.10;99.90
32907;DHT22;19259;51.590;5.320;2022-08-16T06:24:23;21.20;99.90
32907;DHT22;19259;51.590;5.320;2022-08-16T06:26:51;21.20;99.90
32907;DHT22;19259;51.590;5.320;2022-08-16T06:29:18;21.20;99.90
32907;DHT22;19259;51.590;5.320;2022-08-16T06:31:46;21.30;99.90
32907;DHT22;19259;51.590;5.320;2022-08-16T06:34:13;21.50;99.90
32907;DHT22;19259;51.590;5.320;2022-08-16T06:36:41;21.50;99.90
32907;DHT22;19259;51.590;5.320;2022-08-16T06:39:08;21.60;99.90
32907;DHT22;19259;51.590;5.320;2022-08-16T06:41:36;21.50;99.90
32907;DHT22;19259;51.590;5.320;2022-08-16T06:44:04;21.60;99.90
32907;DHT22;19259;51.590;5.320;2022-08-16T06:46:34;21.40;99.90
32907;DHT22;19259;51.590;5.320;2022-08-16T06:49:06;21.60;99.90
32907;DHT22;19259;51.590;5.320;2022-08-16T06:51:36;21.70;99.90
32907;DHT22;19259;51.590;5.320;2022-08-16T06:54:05;21.80;99.90
32907;DHT22;19259;51.590;5.320;2022-08-16T06:56:34;21.90;99.90
32907;DHT22;19259;51.590;5.320;2022-08-16T06:59:02;21.90;99.90
32907;DHT22;19259;51.590;5.320;2022-08-16T07:01:29;22.00;99.90
32907;DHT22;19259;51.590;5.320;2022-08-16T07:03:57;22.00;99.90
32907;DHT22;19259;51.590;5.320;2022-08-16T07:06:28;22.00;99.90
32907;DHT22;19259;51.590;5.320;2022-08-16T07:08:56;22.10;99.90
32907;DHT22;19259;51.590;5.320;2022-08-16T07:11:24;22.20;99.90
32907;DHT22;19259;51.590;5.320;2022-08-16T07:13:52;22.30;99.90
32907;DHT22;19259;51.590;5.320;2022-08-16T07:16:20;22.30;99.90
32907;DHT22;19259;51.590;5.320;2022-08-16T07:18:48;22.50;99.90
32907;DHT22;19259;51.590;5.320;2022-08-16T07:21:15;22.50;99.90
32907;DHT22;19259;51.590;5.320;2022-08-16T07:23:46;22.60;99.90
32907;DHT22;19259;51.590;5.320;2022-08-16T07:26:22;22.70;99.90
32907;DHT22;19259;51.590;5.320;2022-08-16T07:28:49;22.70;99.90
32907;DHT22;19259;51.590;5.320;2022-08-16T07:31:18;22.70;99.90
32907;DHT22;19259;51.590;5.320;2022-08-16T07:33:45;22.70;99.90
32907;DHT22;19259;51.590;5.320;2022-08-16T07:36:14;22.80;99.90
32907;DHT22;19259;51.590;5.320;2022-08-16T07:38:42;23.00;99.90
32907;DHT22;19259;51.590;5.320;2022-08-16T07:41:10;23.00;99.90
32907;DHT22;19259;51.590;5.320;2022-08-16T07:43:38;23.20;99.90
32907;DHT22;19259;51.590;5.320;2022-08-16T07:46:06;23.30;99.90
32907;DHT22;19259;51.590;5.320;2022-08-16T07:48:36;23.30;99.90
32907;DHT22;19259;51.590;5.320;2022-08-16T07:51:04;23.40;99.90
32907;DHT22;19259;51.590;5.320;2022-08-16T07:53:32;23.30;99.90
32907;DHT22;19259;51.590;5.320;2022-08-16T07:56:01;23.40;99.90
32907;DHT22;19259;51.590;5.320;2022-08-16T07:58:28;23.50;99.90
32907;DHT22;19259;51.590;5.320;2022-08-16T08:00:56;23.60;99.90
32907;DHT22;19259;51.590;5.320;2022-08-16T08:03:24;23.70;99.90
32907;DHT22;19259;51.590;5.320;2022-08-16T08:05:52;23.90;99.90
32907;DHT22;19259;51.590;5.320;2022-08-16T08:08:20;23.90;99.90
32907;DHT22;19259;51.590;5.320;2022-08-16T08:10:47;23.90;99.90
32907;DHT22;19259;51.590;5.320;2022-08-16T08:13:16;23.90;99.90
32907;DHT22;19259;51.590;5.320;2022-08-16T08:15:44;24.00;99.90
32907;DHT22;19259;51.590;5.320;2022-08-16T08:18:21;24.20;99.90
32907;DHT22;19259;51.590;5.320;2022-08-16T08:20:49;24.20;99.90
32907;DHT22;19259;51.590;5.320;2022-08-16T08:23:17;24.30;99.90
32907;DHT22;19259;51.590;5.320;2022-08-16T08:25:46;24.30;99.90
32907;DHT22;19259;51.590;5.320;2022-08-16T08:28:14;24.30;99.90
32907;DHT22;19259;51.590;5.320;2022-08-16T08:30:42;24.30;99.90
32907;DHT22;19259;51.590;5.320;2022-08-16T08:33:10;24.30;99.90
32907;DHT22;19259;51.590;5.320;2022-08-16T08:35:38;24.40;99.90
32907;DHT22;19259;51.590;5.320;2022-08-16T08:38:06;24.60;99.90
32907;DHT22;19259;51.590;5.320;2022-08-16T08:40:34;24.60;99.90
32907;DHT22;19259;51.590;5.320;2022-08-16T08:43:02;24.60;99.90
32907;DHT22;19259;51.590;5.320;2022-08-16T08:45:30;24.70;99.90
32907;DHT22;19259;51.590;5.320;2022-08-16T08:47:58;24.90;99.90
32907;DHT22;19259;51.590;5.320;2022-08-16T08:50:25;25.10;99.90
32907;DHT22;19259;51.590;5.320;2022-08-16T08:52:53;25.10;99.90
32907;DHT22;19259;51.590;5.320;2022-08-16T08:55:21;25.20;99.90
32907;DHT22;19259;51.590;5.320;2022-08-16T08:57:50;25.40;99.90
32907;DHT22;19259;51.590;5.320;2022-08-16T09:00:20;25.60;99.90
32907;DHT22;19259;51.590;5.320;2022-08-16T09:02:49;25.60;99.90
32907;DHT22;19259;51.590;5.320;2022-08-16T09:05:20;25.60;99.90
32907;DHT22;19259;51.590;5.320;2022-08-16T09:07:48;25.70;99.90
32907;DHT22;19259;51.590;5.320;2022-08-16T09:10:16;25.70;99.90
32907;DHT22;19259;51.590;5.320;2022-08-16T09:12:45;25.70;99.90
32907;DHT22;19259;51.590;5.320;2022-08-16T09:15:15;25.70;99.90
32907;DHT22;19259;51.590;5.320;2022-08-16T09:17:43;25.60;99.90
32907;DHT22;19259;51.590;5.320;2022-08-16T09:20:11;25.70;99.90
32907;DHT22;19259;51.590;5.320;2022-08-16T09:22:41;25.70;99.90
32907;DHT22;19259;51.590;5.320;2022-08-16T09:25:09;25.50;99.90
32907;DHT22;19259;51.590;5.320;2022-08-16T09:27:38;25.70;99.90
32907;DHT22;19259;51.590;5.320;2022-08-16T09:30:06;25.70;99.90
32907;DHT22;19259;51.590;5.320;2022-08-16T09:32:35;25.90;99.90
32907;DHT22;19259;51.590;5.320;2022-08-16T09:35:12;26.10;99.90
32907;DHT22;19259;51.590;5.320;2022-08-16T09:37:39;26.30;99.90
32907;DHT22;19259;51.590;5.320;2022-08-16T09:40:08;26.60;99.90
32907;DHT22;19259;51.590;5.320;2022-08-16T09:42:36;26.60;99.90
32907;DHT22;19259;51.590;5.320;2022-08-16T09:45:15;26.70;99.90
32907;DHT22;19259;51.590;5.320;2022-08-16T09:47:39;26.70;99.90
32907;DHT22;19259;51.590;5.320;2022-08-16T09:50:11;26.70;99.90
32907;DHT22;19259;51.590;5.320;2022-08-16T09:52:39;26.80;99.90
32907;DHT22;19259;51.590;5.320;2022-08-16T09:55:09;27.00;99.90
32907;DHT22;19259;51.590;5.320;2022-08-16T09:57:39;27.10;99.90
32907;DHT22;19259;51.590;5.320;2022-08-16T10:00:11;27.20;99.90
32907;DHT22;19259;51.590;5.320;2022-08-16T10:02:39;27.30;99.90
32907;DHT22;19259;51.590;5.320;2022-08-16T10:05:09;27.30;99.90
32907;DHT22;19259;51.590;5.320;2022-08-16T10:07:37;27.30;99.90
32907;DHT22;19259;51.590;5.320;2022-08-16T10:10:05;27.10;99.90
32907;DHT22;19259;51.590;5.320;2022-08-16T10:12:32;27.30;99.90
32907;DHT22;19259;51.590;5.320;2022-08-16T10:15:19;27.40;99.90
32907;DHT22;19259;51.590;5.320;2022-08-16T10:17:51;27.50;99.90
32907;DHT22;19259;51.590;5.320;2022-08-16T10:20:17;27.50;99.90
32907;DHT22;19259;51.590;5.320;2022-08-16T10:22:45;27.60;99.90
32907;DHT22;19259;51.590;5.320;2022-08-16T10:25:13;27.70;99.90
32907;DHT22;19259;51.590;5.320;2022-08-16T10:27:40;27.80;99.90
32907;DHT22;19259;51.590;5.320;2022-08-16T10:30:12;27.90;99.90
32907;DHT22;19259;51.590;5.320;2022-08-16T10:32:44;27.90;99.90
32907;DHT22;19259;51.590;5.320;2022-08-16T10:35:10;28.20;99.90
32907;DHT22;19259;51.590;5.320;2022-08-16T10:37:38;28.10;99.90
32907;DHT22;19259;51.590;5.320;2022-08-16T10:40:07;27.70;99.90
32907;DHT22;19259;51.590;5.320;2022-08-16T10:42:35;27.70;99.90
32907;DHT22;19259;51.590;5.320;2022-08-16T10:45:03;27.80;99.90
32907;DHT22;19259;51.590;5.320;2022-08-16T10:47:32;27.80;99.90
32907;DHT22;19259;51.590;5.320;2022-08-16T10:50:02;27.90;99.90
32907;DHT22;19259;51.590;5.320;2022-08-16T10:52:34;28.30;99.90
32907;DHT22;19259;51.590;5.320;2022-08-16T10:54:59;28.40;99.90
32907;DHT22;19259;51.590;5.320;2022-08-16T10:57:27;28.60;99.90
32907;DHT22;19259;51.590;5.320;2022-08-16T11:00:00;28.30;99.90
32907;DHT22;19259;51.590;5.320;2022-08-16T11:02:29;28.30;99.90
32907;DHT22;19259;51.590;5.320;2022-08-16T11:04:57;28.20;99.90
32907;DHT22;19259;51.590;5.320;2022-08-16T11:07:25;28.20;99.90
32907;DHT22;19259;51.590;5.320;2022-08-16T11:09:57;28.20;99.90
32907;DHT22;19259;51.590;5.320;2022-08-16T11:12:23;28.20;99.90
32907;DHT22;19259;51.590;5.320;2022-08-16T11:14:51;28.20;99.90
32907;DHT22;19259;51.590;5.320;2022-08-16T11:17:18;28.30;99.90
32907;DHT22;19259;51.590;5.320;2022-08-16T11:19:46;28.40;99.90
32907;DHT22;19259;51.590;5.320;2022-08-16T11:22:15;28.40;99.90
32907;DHT22;19259;51.590;5.320;2022-08-16T11:24:44;28.40;99.90
32907;DHT22;19259;51.590;5.320;2022-08-16T11:27:18;28.20;99.90
32907;DHT22;19259;51.590;5.320;2022-08-16T11:29:42;28.30;99.90
32907;DHT22;19259;51.590;5.320;2022-08-16T11:32:09;28.40;99.90
32907;DHT22;19259;51.590;5.320;2022-08-16T11:34:37;28.40;99.90
32907;DHT22;19259;51.590;5.320;2022-08-16T11:37:04;28.30;99.90
32907;DHT22;19259;51.590;5.320;2022-08-16T11:39:32;28.00;99.90
32907;DHT22;19259;51.590;5.320;2022-08-16T11:42:01;28.00;99.90
32907;DHT22;19259;51.590;5.320;2022-08-16T11:44:28;27.90;99.90
32907;DHT22;19259;51.590;5.320;2022-08-16T11:46:56;27.90;99.90
32907;DHT22;19259;51.590;5.320;2022-08-16T11:49:23;27.90;99.90
32907;DHT22;19259;51.590;5.320;2022-08-16T11:51:51;28.00;99.90
32907;DHT22;19259;51.590;5.320;2022-08-16T11:54:18;27.90;99.90
32907;DHT22;19259;51.590;5.320;2022-08-16T11:56:46;28.10;99.90
32907;DHT22;19259;51.590;5.320;2022-08-16T11:59:14;28.20;99.90
32907;DHT22;19259;51.590;5.320;2022-08-16T12:01:41;28.10;99.90
32907;DHT22;19259;51.590;5.320;2022-08-16T12:04:09;28.00;99.90
32907;DHT22;19259;51.590;5.320;2022-08-16T12:06:37;28.10;99.90
32907;DHT22;19259;51.590;5.320;2022-08-16T12:09:05;28.20;99.90
32907;DHT22;19259;51.590;5.320;2022-08-16T12:11:33;28.30;99.90
32907;DHT22;19259;51.590;5.320;2022-08-16T12:14:04;28.60;99.90
32907;DHT22;19259;51.590;5.320;2022-08-16T12:16:34;28.60;99.90
32907;DHT22;19259;51.590;5.320;2022-08-16T12:19:05;28.80;99.90
32907;DHT22;19259;51.590;5.320;2022-08-16T12:21:33;29.00;99.90
32907;DHT22;19259;51.590;5.320;2022-08-16T12:24:01;28.90;99.90
32907;DHT22;19259;51.590;5.320;2022-08-16T12:26:28;29.20;99.90
32907;DHT22;19259;51.590;5.320;2022-08-16T12:28:56;29.40;99.90
32907;DHT22;19259;51.590;5.320;2022-08-16T12:31:24;29.50;99.90
32907;DHT22;19259;51.590;5.320;2022-08-16T12:33:52;29.40;99.90
32907;DHT22;19259;51.590;5.320;2022-08-16T12:36:21;29.30;99.40
32907;DHT22;19259;51.590;5.320;2022-08-16T12:38:48;29.30;98.30
32907;DHT22;19259;51.590;5.320;2022-08-16T12:41:16;29.30;98.10
32907;DHT22;19259;51.590;5.320;2022-08-16T12:43:44;29.20;99.90
32907;DHT22;19259;51.590;5.320;2022-08-16T12:46:11;29.00;99.90
32907;DHT22;19259;51.590;5.320;2022-08-16T12:48:40;29.10;98.90
32907;DHT22;19259;51.590;5.320;2022-08-16T12:51:31;29.40;99.40
32907;DHT22;19259;51.590;5.320;2022-08-16T12:54:01;29.30;99.40
32907;DHT22;19259;51.590;5.320;2022-08-16T12:56:32;29.40;96.60
32907;DHT22;19259;51.590;5.320;2022-08-16T12:59:03;29.30;96.70
32907;DHT22;19259;51.590;5.320;2022-08-16T13:01:32;29.10;98.40
32907;DHT22;19259;51.590;5.320;2022-08-16T13:04:01;29.10;96.80
32907;DHT22;19259;51.590;5.320;2022-08-16T13:06:29;29.10;97.10
32907;DHT22;19259;51.590;5.320;2022-08-16T13:08:57;29.20;97.40
32907;DHT22;19259;51.590;5.320;2022-08-16T13:11:36;29.10;95.70
32907;DHT22;19259;51.590;5.320;2022-08-16T13:14:03;29.20;95.40
32907;DHT22;19259;51.590;5.320;2022-08-16T13:16:30;29.30;95.10
32907;DHT22;19259;51.590;5.320;2022-08-16T13:18:58;29.50;94.00
32907;DHT22;19259;51.590;5.320;2022-08-16T13:21:25;29.20;94.20
32907;DHT22;19259;51.590;5.320;2022-08-16T13:23:53;29.30;93.60
32907;DHT22;19259;51.590;5.320;2022-08-16T13:26:21;29.40;94.50
32907;DHT22;19259;51.590;5.320;2022-08-16T13:28:49;29.40;96.70
32907;DHT22;19259;51.590;5.320;2022-08-16T13:31:18;29.60;95.60
32907;DHT22;19259;51.590;5.320;2022-08-16T13:33:45;29.50;92.50
32907;DHT22;19259;51.590;5.320;2022-08-16T13:36:13;29.40;92.40
32907;DHT22;19259;51.590;5.320;2022-08-16T13:38:40;29.50;92.80
32907;DHT22;19259;51.590;5.320;2022-08-16T13:41:09;29.60;91.70
32907;DHT22;19259;51.590;5.320;2022-08-16T13:43:38;29.50;91.00
32907;DHT22;19259;51.590;5.320;2022-08-16T13:46:07;29.10;94.20
32907;DHT22;19259;51.590;5.320;2022-08-16T13:48:40;29.40;94.20
32907;DHT22;19259;51.590;5.320;2022-08-16T13:51:05;29.30;93.80
32907;DHT22;19259;51.590;5.320;2022-08-16T13:53:32;29.40;92.50
32907;DHT22;19259;51.590;5.320;2022-08-16T13:56:01;29.60;94.40
32907;DHT22;19259;51.590;5.320;2022-08-16T13:58:29;29.30;96.70
32907;DHT22;19259;51.590;5.320;2022-08-16T14:00:57;29.30;97.30
32907;DHT22;19259;51.590;5.320;2022-08-16T14:03:24;29.40;96.00
32907;DHT22;19259;51.590;5.320;2022-08-16T14:05:52;29.60;94.20
32907;DHT22;19259;51.590;5.320;2022-08-16T14:08:20;29.30;93.50
32907;DHT22;19259;51.590;5.320;2022-08-16T14:10:48;29.30;93.80
32907;DHT22;19259;51.590;5.320;2022-08-16T14:13:16;29.10;93.10
32907;DHT22;19259;51.590;5.320;2022-08-16T14:15:44;28.90;92.90
32907;DHT22;19259;51.590;5.320;2022-08-16T14:18:11;28.80;94.90
32907;DHT22;19259;51.590;5.320;2022-08-16T14:20:39;28.80;97.50
32907;DHT22;19259;51.590;5.320;2022-08-16T14:23:06;28.90;97.60
32907;DHT22;19259;51.590;5.320;2022-08-16T14:25:34;29.00;97.10
32907;DHT22;19259;51.590;5.320;2022-08-16T14:28:02;29.00;94.90
32907;DHT22;19259;51.590;5.320;2022-08-16T14:30:30;29.10;96.50
32907;DHT22;19259;51.590;5.320;2022-08-16T14:32:58;29.10;95.80
32907;DHT22;19259;51.590;5.320;2022-08-16T14:35:28;29.00;95.30
32907;DHT22;19259;51.590;5.320;2022-08-16T14:37:56;29.10;96.00
32907;DHT22;19259;51.590;5.320;2022-08-16T14:40:23;28.90;98.50
32907;DHT22;19259;51.590;5.320;2022-08-16T14:42:51;29.00;96.90
32907;DHT22;19259;51.590;5.320;2022-08-16T14:45:23;29.10;97.70
32907;DHT22;19259;51.590;5.320;2022-08-16T14:47:50;29.00;98.10
32907;DHT22;19259;51.590;5.320;2022-08-16T14:50:20;29.20;97.20
32907;DHT22;19259;51.590;5.320;2022-08-16T14:52:59;29.20;98.10
32907;DHT22;19259;51.590;5.320;2022-08-16T14:55:23;29.20;95.50
32907;DHT22;19259;51.590;5.320;2022-08-16T14:57:51;29.20;96.20
32907;DHT22;19259;51.590;5.320;2022-08-16T15:00:19;29.40;96.00
32907;DHT22;19259;51.590;5.320;2022-08-16T15:02:52;29.40;97.90
32907;DHT22;19259;51.590;5.320;2022-08-16T15:05:22;29.50;96.20
32907;DHT22;19259;51.590;5.320;2022-08-16T15:07:51;29.40;96.70
32907;DHT22;19259;51.590;5.320;2022-08-16T15:10:21;29.20;97.60
32907;DHT22;19259;51.590;5.320;2022-08-16T15:12:50;29.20;98.40
32907;DHT22;19259;51.590;5.320;2022-08-16T15:15:23;28.60;97.00
32907;DHT22;19259;51.590;5.320;2022-08-16T15:17:53;28.30;97.80
32907;DHT22;19259;51.590;5.320;2022-08-16T15:20:24;28.10;97.70
32907;DHT22;19259;51.590;5.320;2022-08-16T15:22:51;28.20;99.00
32907;DHT22;19259;51.590;5.320;2022-08-16T15:25:35;28.00;98.60
32907;DHT22;19259;51.590;5.320;2022-08-16T15:28:00;28.00;99.20
32907;DHT22;19259;51.590;5.320;2022-08-16T15:30:33;27.80;98.50
32907;DHT22;19259;51.590;5.320;2022-08-16T15:33:05;27.70;98.00
32907;DHT22;19259;51.590;5.320;2022-08-16T15:35:33;27.70;98.80
32907;DHT22;19259;51.590;5.320;2022-08-16T15:38:03;27.70;99.50
32907;DHT22;19259;51.590;5.320;2022-08-16T15:40:32;27.90;99.90